sensor_id;sensor_type;location;lat;lon;timestamp;P1;durP1;ratioP1;P2;durP2;ratioP2
2888;SDS011;1453;42.708;23.282;2023-03-20T00:01:59;31.88;;;16.63;;
2888;SDS011;1453;42.708;23.282;2023-03-20T00:04:25;25.60;;;16.20;;
2888;SDS011;1453;42.708;23.282;2023-03-20T00:06:51;23.27;;;15.90;;
2888;SDS011;1453;42.708;23.282;2023-03-20T00:09:17;22.90;;;15.23;;
2888;SDS011;1453;42.708;23.282;2023-03-20T00:11:45;22.40;;;15.20;;
2888;SDS011;1453;42.708;23.282;2023-03-20T00:14:14;26.30;;;15.85;;
2888;SDS011;1453;42.708;23.282;2023-03-20T00:16:44;26.25;;;16.27;;
2888;SDS011;1453;42.708;23.282;2023-03-20T00:19:33;26.13;;;15.80;;
2888;SDS011;1453;42.708;23.282;2023-03-20T00:21:58;30.67;;;16.25;;
2888;SDS011;1453;42.708;23.282;2023-03-20T00:24:24;28.55;;;17.20;;
2888;SDS011;1453;42.708;23.282;2023-03-20T00:26:51;26.73;;;16.57;;
2888;SDS011;1453;42.708;23.282;2023-03-20T00:31:52;28.20;;;15.40;;
2888;SDS011;1453;42.708;23.282;2023-03-20T00:34:20;28.23;;;17.20;;
2888;SDS011;1453;42.708;23.282;2023-03-20T00:36:50;29.45;;;16.17;;
2888;SDS011;1453;42.708;23.282;2023-03-20T00:39:16;28.67;;;17.45;;
2888;SDS011;1453;42.708;23.282;2023-03-20T00:44:34;32.40;;;16.48;;
2888;SDS011;1453;42.708;23.282;2023-03-20T00:47:16;28.45;;;17.00;;
2888;SDS011;1453;42.708;23.282;2023-03-20T00:49:45;28.33;;;16.98;;
2888;SDS011;1453;42.708;23.282;2023-03-20T00:52:14;29.80;;;16.98;;
2888;SDS011;1453;42.708;23.282;2023-03-20T00:54:42;34.05;;;17.85;;
2888;SDS011;1453;42.708;23.282;2023-03-20T00:57:13;31.80;;;18.83;;
2888;SDS011;1453;42.708;23.282;2023-03-20T01:00:04;33.88;;;19.90;;
2888;SDS011;1453;42.708;23.282;2023-03-20T01:02:38;39.08;;;25.00;;
2888;SDS011;1453;42.708;23.282;2023-03-20T01:05:04;24.53;;;15.87;;
2888;SDS011;1453;42.708;23.282;2023-03-20T01:07:30;26.27;;;15.10;;
2888;SDS011;1453;42.708;23.282;2023-03-20T01:09:56;28.73;;;16.63;;
2888;SDS011;1453;42.708;23.282;2023-03-20T01:12:22;23.60;;;16.07;;
2888;SDS011;1453;42.708;23.282;2023-03-20T01:14:52;22.37;;;15.07;;
2888;SDS011;1453;42.708;23.282;2023-03-20T01:17:21;40.20;;;24.30;;
2888;SDS011;1453;42.708;23.282;2023-03-20T01:19:48;66.75;;;37.10;;
2888;SDS011;1453;42.708;23.282;2023-03-20T01:22:14;63.03;;;37.53;;
2888;SDS011;1453;42.708;23.282;2023-03-20T01:24:42;63.70;;;33.28;;
2888;SDS011;1453;42.708;23.282;2023-03-20T01:27:15;45.25;;;27.45;;
2888;SDS011;1453;42.708;23.282;2023-03-20T01:29:43;39.90;;;24.15;;
2888;SDS011;1453;42.708;23.282;2023-03-20T01:32:18;45.28;;;26.58;;
2888;SDS011;1453;42.708;23.282;2023-03-20T01:34:44;40.78;;;24.15;;
2888;SDS011;1453;42.708;23.282;2023-03-20T01:37:12;33.42;;;20.00;;
2888;SDS011;1453;42.708;23.282;2023-03-20T01:39:42;26.83;;;17.48;;
2888;SDS011;1453;42.708;23.282;2023-03-20T01:42:09;33.07;;;17.43;;
2888;SDS011;1453;42.708;23.282;2023-03-20T01:44:38;36.05;;;22.27;;
2888;SDS011;1453;42.708;23.282;2023-03-20T01:47:08;38.93;;;22.80;;
2888;SDS011;1453;42.708;23.282;2023-03-20T01:52:44;40.53;;;24.10;;
2888;SDS011;1453;42.708;23.282;2023-03-20T01:55:11;35.47;;;21.00;;
2888;SDS011;1453;42.708;23.282;2023-03-20T01:57:37;41.40;;;25.07;;
2888;SDS011;1453;42.708;23.282;2023-03-20T02:00:13;42.45;;;24.65;;
2888;SDS011;1453;42.708;23.282;2023-03-20T02:02:40;41.72;;;23.42;;
2888;SDS011;1453;42.708;23.282;2023-03-20T02:05:11;37.15;;;21.52;;
2888;SDS011;1453;42.708;23.282;2023-03-20T02:07:41;40.55;;;21.77;;
2888;SDS011;1453;42.708;23.282;2023-03-20T02:10:17;32.60;;;20.27;;
2888;SDS011;1453;42.708;23.282;2023-03-20T02:12:43;30.42;;;18.83;;
2888;SDS011;1453;42.708;23.282;2023-03-20T02:15:11;39.63;;;22.02;;
2888;SDS011;1453;42.708;23.282;2023-03-20T02:17:40;38.80;;;18.52;;
2888;SDS011;1453;42.708;23.282;2023-03-20T02:55:45;58.10;;;32.22;;
2888;SDS011;1453;42.708;23.282;2023-03-20T03:00:57;60.92;;;34.47;;
2888;SDS011;1453;42.708;23.282;2023-03-20T03:03:36;49.00;;;28.98;;
2888;SDS011;1453;42.708;23.282;2023-03-20T03:06:19;49.58;;;30.33;;
2888;SDS011;1453;42.708;23.282;2023-03-20T03:11:57;34.63;;;21.58;;
2888;SDS011;1453;42.708;23.282;2023-03-20T03:14:46;31.17;;;19.70;;
2888;SDS011;1453;42.708;23.282;2023-03-20T03:17:22;36.53;;;23.88;;
2888;SDS011;1453;42.708;23.282;2023-03-20T03:19:52;30.85;;;19.50;;
2888;SDS011;1453;42.708;23.282;2023-03-20T03:22:23;29.15;;;17.48;;
2888;SDS011;1453;42.708;23.282;2023-03-20T03:24:50;31.65;;;19.00;;
2888;SDS011;1453;42.708;23.282;2023-03-20T03:30:02;30.20;;;17.58;;
2888;SDS011;1453;42.708;23.282;2023-03-20T03:32:48;31.70;;;19.77;;
2888;SDS011;1453;42.708;23.282;2023-03-20T03:35:29;29.98;;;18.70;;
2888;SDS011;1453;42.708;23.282;2023-03-20T03:38:19;30.73;;;18.60;;
2888;SDS011;1453;42.708;23.282;2023-03-20T03:41:06;35.15;;;18.98;;
2888;SDS011;1453;42.708;23.282;2023-03-20T03:43:44;31.92;;;19.20;;
2888;SDS011;1453;42.708;23.282;2023-03-20T03:46:26;28.83;;;15.38;;
2888;SDS011;1453;42.708;23.282;2023-03-20T03:49:07;26.65;;;15.80;;
2888;SDS011;1453;42.708;23.282;2023-03-20T03:51:39;24.73;;;16.27;;
2888;SDS011;1453;42.708;23.282;2023-03-20T03:54:19;28.90;;;16.25;;
2888;SDS011;1453;42.708;23.282;2023-03-20T03:56:58;24.95;;;17.35;;
2888;SDS011;1453;42.708;23.282;2023-03-20T03:59:29;40.15;;;18.98;;
2888;SDS011;1453;42.708;23.282;2023-03-20T04:02:00;29.77;;;18.88;;
2888;SDS011;1453;42.708;23.282;2023-03-20T04:04:30;42.53;;;25.35;;
2888;SDS011;1453;42.708;23.282;2023-03-20T04:06:56;62.30;;;39.13;;
2888;SDS011;1453;42.708;23.282;2023-03-20T04:09:22;38.20;;;25.00;;
2888;SDS011;1453;42.708;23.282;2023-03-20T04:11:49;51.03;;;32.67;;
2888;SDS011;1453;42.708;23.282;2023-03-20T04:14:17;49.20;;;33.50;;
2888;SDS011;1453;42.708;23.282;2023-03-20T04:16:43;82.25;;;46.50;;
2888;SDS011;1453;42.708;23.282;2023-03-20T04:19:10;49.92;;;26.67;;
2888;SDS011;1453;42.708;23.282;2023-03-20T04:21:36;83.05;;;44.25;;
2888;SDS011;1453;42.708;23.282;2023-03-20T04:24:02;50.00;;;30.00;;
2888;SDS011;1453;42.708;23.282;2023-03-20T04:26:28;63.67;;;35.33;;
2888;SDS011;1453;42.708;23.282;2023-03-20T04:28:54;67.32;;;35.20;;
2888;SDS011;1453;42.708;23.282;2023-03-20T04:31:20;55.50;;;32.87;;
2888;SDS011;1453;42.708;23.282;2023-03-20T04:33:46;47.72;;;26.35;;
2888;SDS011;1453;42.708;23.282;2023-03-20T04:36:12;46.73;;;28.00;;
2888;SDS011;1453;42.708;23.282;2023-03-20T04:38:38;45.45;;;27.08;;
2888;SDS011;1453;42.708;23.282;2023-03-20T04:41:05;42.88;;;25.73;;
2888;SDS011;1453;42.708;23.282;2023-03-20T04:43:32;43.90;;;24.60;;
2888;SDS011;1453;42.708;23.282;2023-03-20T04:45:58;40.30;;;23.80;;
2888;SDS011;1453;42.708;23.282;2023-03-20T04:48:24;33.90;;;20.77;;
2888;SDS011;1453;42.708;23.282;2023-03-20T04:50:51;29.55;;;19.63;;
2888;SDS011;1453;42.708;23.282;2023-03-20T04:53:18;35.13;;;19.88;;
2888;SDS011;1453;42.708;23.282;2023-03-20T04:55:44;36.47;;;20.40;;
2888;SDS011;1453;42.708;23.282;2023-03-20T04:58:10;36.58;;;20.85;;
2888;SDS011;1453;42.708;23.282;2023-03-20T05:00:36;35.08;;;22.15;;
2888;SDS011;1453;42.708;23.282;2023-03-20T05:03:02;41.70;;;22.70;;
2888;SDS011;1453;42.708;23.282;2023-03-20T05:05:28;35.10;;;23.50;;
2888;SDS011;1453;42.708;23.282;2023-03-20T05:07:54;31.92;;;21.35;;
2888;SDS011;1453;42.708;23.282;2023-03-20T05:10:20;32.92;;;21.50;;
2888;SDS011;1453;42.708;23.282;2023-03-20T05:12:46;34.40;;;22.15;;
2888;SDS011;1453;42.708;23.282;2023-03-20T05:15:12;38.47;;;21.73;;
2888;SDS011;1453;42.708;23.282;2023-03-20T05:17:38;37.85;;;20.95;;
2888;SDS011;1453;42.708;23.282;2023-03-20T05:20:04;37.58;;;20.27;;
2888;SDS011;1453;42.708;23.282;2023-03-20T05:22:31;33.70;;;21.25;;
2888;SDS011;1453;42.708;23.282;2023-03-20T05:24:57;41.63;;;23.20;;
2888;SDS011;1453;42.708;23.282;2023-03-20T05:27:22;39.30;;;22.77;;
2888;SDS011;1453;42.708;23.282;2023-03-20T05:29:48;40.50;;;24.40;;
2888;SDS011;1453;42.708;23.282;2023-03-20T05:32:14;39.30;;;24.40;;
2888;SDS011;1453;42.708;23.282;2023-03-20T05:34:40;35.83;;;22.00;;
2888;SDS011;1453;42.708;23.282;2023-03-20T05:37:05;34.70;;;19.50;;
2888;SDS011;1453;42.708;23.282;2023-03-20T05:39:31;35.73;;;19.70;;
2888;SDS011;1453;42.708;23.282;2023-03-20T05:41:57;45.53;;;19.50;;
2888;SDS011;1453;42.708;23.282;2023-03-20T05:44:23;40.37;;;20.03;;
2888;SDS011;1453;42.708;23.282;2023-03-20T05:46:48;45.10;;;23.00;;
2888;SDS011;1453;42.708;23.282;2023-03-20T05:49:14;44.43;;;23.83;;
2888;SDS011;1453;42.708;23.282;2023-03-20T05:51:40;42.93;;;23.23;;
2888;SDS011;1453;42.708;23.282;2023-03-20T05:54:06;49.03;;;25.70;;
2888;SDS011;1453;42.708;23.282;2023-03-20T05:56:32;47.67;;;25.58;;
2888;SDS011;1453;42.708;23.282;2023-03-20T05:58:58;47.30;;;22.60;;
2888;SDS011;1453;42.708;23.282;2023-03-20T06:01:24;41.50;;;23.10;;
2888;SDS011;1453;42.708;23.282;2023-03-20T06:03:50;46.33;;;25.90;;
2888;SDS011;1453;42.708;23.282;2023-03-20T06:06:16;48.10;;;28.63;;
2888;SDS011;1453;42.708;23.282;2023-03-20T06:08:42;54.95;;;31.08;;
2888;SDS011;1453;42.708;23.282;2023-03-20T06:11:08;50.53;;;29.05;;
2888;SDS011;1453;42.708;23.282;2023-03-20T06:13:35;49.70;;;26.70;;
2888;SDS011;1453;42.708;23.282;2023-03-20T06:16:01;52.53;;;29.80;;
2888;SDS011;1453;42.708;23.282;2023-03-20T06:18:27;42.83;;;26.37;;
2888;SDS011;1453;42.708;23.282;2023-03-20T06:20:53;45.80;;;27.43;;
2888;SDS011;1453;42.708;23.282;2023-03-20T06:23:21;47.35;;;25.83;;
2888;SDS011;1453;42.708;23.282;2023-03-20T06:25:47;40.55;;;22.55;;
2888;SDS011;1453;42.708;23.282;2023-03-20T06:28:13;34.63;;;21.73;;
2888;SDS011;1453;42.708;23.282;2023-03-20T06:30:40;37.28;;;21.70;;
2888;SDS011;1453;42.708;23.282;2023-03-20T06:33:07;30.43;;;23.00;;
2888;SDS011;1453;42.708;23.282;2023-03-20T06:35:34;34.88;;;22.17;;
2888;SDS011;1453;42.708;23.282;2023-03-20T06:38:00;32.42;;;21.30;;
2888;SDS011;1453;42.708;23.282;2023-03-20T06:40:26;27.43;;;19.43;;
2888;SDS011;1453;42.708;23.282;2023-03-20T06:42:52;37.33;;;21.60;;
2888;SDS011;1453;42.708;23.282;2023-03-20T06:45:19;28.97;;;19.23;;
2888;SDS011;1453;42.708;23.282;2023-03-20T06:47:46;30.00;;;18.20;;
2888;SDS011;1453;42.708;23.282;2023-03-20T06:50:12;24.57;;;16.47;;
2888;SDS011;1453;42.708;23.282;2023-03-20T06:52:39;22.23;;;16.00;;
2888;SDS011;1453;42.708;23.282;2023-03-20T06:55:06;26.53;;;17.20;;
2888;SDS011;1453;42.708;23.282;2023-03-20T06:57:32;25.97;;;18.13;;
2888;SDS011;1453;42.708;23.282;2023-03-20T06:59:58;29.57;;;17.40;;
2888;SDS011;1453;42.708;23.282;2023-03-20T07:02:24;27.33;;;17.73;;
2888;SDS011;1453;42.708;23.282;2023-03-20T07:04:50;28.30;;;19.57;;
2888;SDS011;1453;42.708;23.282;2023-03-20T07:07:16;25.90;;;17.90;;
2888;SDS011;1453;42.708;23.282;2023-03-20T07:09:42;30.17;;;20.00;;
2888;SDS011;1453;42.708;23.282;2023-03-20T07:12:12;29.60;;;16.70;;
2888;SDS011;1453;42.708;23.282;2023-03-20T07:14:41;24.80;;;16.17;;
2888;SDS011;1453;42.708;23.282;2023-03-20T07:17:07;28.73;;;18.13;;
2888;SDS011;1453;42.708;23.282;2023-03-20T07:19:34;32.90;;;18.60;;
2888;SDS011;1453;42.708;23.282;2023-03-20T07:22:01;29.30;;;19.23;;
2888;SDS011;1453;42.708;23.282;2023-03-20T07:24:32;27.17;;;20.30;;
2888;SDS011;1453;42.708;23.282;2023-03-20T07:26:58;25.90;;;18.30;;
2888;SDS011;1453;42.708;23.282;2023-03-20T07:29:25;27.83;;;19.00;;
2888;SDS011;1453;42.708;23.282;2023-03-20T07:31:51;27.63;;;20.17;;
2888;SDS011;1453;42.708;23.282;2023-03-20T07:34:17;28.23;;;17.90;;
2888;SDS011;1453;42.708;23.282;2023-03-20T07:36:43;25.60;;;18.03;;
2888;SDS011;1453;42.708;23.282;2023-03-20T07:39:10;31.97;;;18.70;;
2888;SDS011;1453;42.708;23.282;2023-03-20T07:41:37;29.97;;;19.10;;
2888;SDS011;1453;42.708;23.282;2023-03-20T07:44:04;26.30;;;19.13;;
2888;SDS011;1453;42.708;23.282;2023-03-20T07:46:32;27.47;;;19.10;;
2888;SDS011;1453;42.708;23.282;2023-03-20T07:48:58;28.53;;;19.60;;
2888;SDS011;1453;42.708;23.282;2023-03-20T07:51:24;24.30;;;18.80;;
2888;SDS011;1453;42.708;23.282;2023-03-20T07:53:50;24.73;;;16.50;;
2888;SDS011;1453;42.708;23.282;2023-03-20T07:56:16;17.87;;;15.40;;
2888;SDS011;1453;42.708;23.282;2023-03-20T07:58:41;27.43;;;18.77;;
2888;SDS011;1453;42.708;23.282;2023-03-20T08:01:07;21.43;;;16.80;;
2888;SDS011;1453;42.708;23.282;2023-03-20T08:03:33;20.00;;;16.27;;
2888;SDS011;1453;42.708;23.282;2023-03-20T08:05:59;21.80;;;17.53;;
2888;SDS011;1453;42.708;23.282;2023-03-20T08:08:26;25.47;;;16.80;;
2888;SDS011;1453;42.708;23.282;2023-03-20T08:10:51;28.67;;;17.53;;
2888;SDS011;1453;42.708;23.282;2023-03-20T08:13:17;25.23;;;19.20;;
2888;SDS011;1453;42.708;23.282;2023-03-20T08:15:45;23.77;;;16.30;;
2888;SDS011;1453;42.708;23.282;2023-03-20T08:18:11;26.23;;;16.67;;
2888;SDS011;1453;42.708;23.282;2023-03-20T08:20:37;24.53;;;15.80;;
2888;SDS011;1453;42.708;23.282;2023-03-20T08:23:02;20.57;;;15.50;;
2888;SDS011;1453;42.708;23.282;2023-03-20T08:25:28;18.03;;;13.13;;
2888;SDS011;1453;42.708;23.282;2023-03-20T08:27:57;21.70;;;13.90;;
2888;SDS011;1453;42.708;23.282;2023-03-20T08:30:25;22.17;;;15.23;;
2888;SDS011;1453;42.708;23.282;2023-03-20T08:32:51;20.03;;;13.70;;
2888;SDS011;1453;42.708;23.282;2023-03-20T08:35:17;21.53;;;13.43;;
2888;SDS011;1453;42.708;23.282;2023-03-20T08:37:43;21.07;;;14.90;;
2888;SDS011;1453;42.708;23.282;2023-03-20T08:40:09;23.60;;;14.50;;
2888;SDS011;1453;42.708;23.282;2023-03-20T08:42:35;15.90;;;12.60;;
2888;SDS011;1453;42.708;23.282;2023-03-20T08:45:01;20.53;;;13.27;;
2888;SDS011;1453;42.708;23.282;2023-03-20T08:47:27;18.27;;;13.93;;
2888;SDS011;1453;42.708;23.282;2023-03-20T08:49:53;22.80;;;13.40;;
2888;SDS011;1453;42.708;23.282;2023-03-20T08:52:19;21.63;;;15.03;;
2888;SDS011;1453;42.708;23.282;2023-03-20T08:54:45;22.13;;;15.27;;
2888;SDS011;1453;42.708;23.282;2023-03-20T08:57:11;22.27;;;15.23;;
2888;SDS011;1453;42.708;23.282;2023-03-20T08:59:37;22.17;;;14.90;;
2888;SDS011;1453;42.708;23.282;2023-03-20T09:02:03;28.07;;;15.77;;
2888;SDS011;1453;42.708;23.282;2023-03-20T09:04:29;27.50;;;17.27;;
2888;SDS011;1453;42.708;23.282;2023-03-20T09:06:55;27.63;;;15.93;;
2888;SDS011;1453;42.708;23.282;2023-03-20T09:09:21;21.30;;;17.70;;
2888;SDS011;1453;42.708;23.282;2023-03-20T09:11:53;29.77;;;19.03;;
2888;SDS011;1453;42.708;23.282;2023-03-20T09:14:21;23.23;;;18.30;;
2888;SDS011;1453;42.708;23.282;2023-03-20T09:16:48;23.83;;;16.80;;
2888;SDS011;1453;42.708;23.282;2023-03-20T09:19:14;21.20;;;16.63;;
2888;SDS011;1453;42.708;23.282;2023-03-20T09:21:41;23.50;;;18.17;;
2888;SDS011;1453;42.708;23.282;2023-03-20T09:24:07;23.33;;;16.47;;
2888;SDS011;1453;42.708;23.282;2023-03-20T09:26:33;22.97;;;18.40;;
2888;SDS011;1453;42.708;23.282;2023-03-20T09:28:59;26.40;;;19.73;;
2888;SDS011;1453;42.708;23.282;2023-03-20T09:31:25;27.10;;;18.93;;
2888;SDS011;1453;42.708;23.282;2023-03-20T09:33:51;24.23;;;17.57;;
2888;SDS011;1453;42.708;23.282;2023-03-20T09:36:17;26.93;;;19.27;;
2888;SDS011;1453;42.708;23.282;2023-03-20T09:38:43;27.50;;;18.67;;
2888;SDS011;1453;42.708;23.282;2023-03-20T09:41:12;26.90;;;20.07;;
2888;SDS011;1453;42.708;23.282;2023-03-20T09:49:20;24.53;;;18.60;;
2888;SDS011;1453;42.708;23.282;2023-03-20T09:52:17;27.70;;;20.37;;
2888;SDS011;1453;42.708;23.282;2023-03-20T09:55:21;21.63;;;19.03;;
2888;SDS011;1453;42.708;23.282;2023-03-20T09:58:00;26.10;;;19.70;;
2888;SDS011;1453;42.708;23.282;2023-03-20T10:00:41;29.17;;;20.10;;
2888;SDS011;1453;42.708;23.282;2023-03-20T10:05:55;20.63;;;18.17;;
2888;SDS011;1453;42.708;23.282;2023-03-20T10:08:29;23.40;;;18.57;;
2888;SDS011;1453;42.708;23.282;2023-03-20T10:19:31;21.47;;;18.93;;
2888;SDS011;1453;42.708;23.282;2023-03-20T10:22:47;23.87;;;19.97;;
2888;SDS011;1453;42.708;23.282;2023-03-20T10:25:41;27.57;;;20.30;;
2888;SDS011;1453;42.708;23.282;2023-03-20T10:28:23;31.33;;;22.57;;
2888;SDS011;1453;42.708;23.282;2023-03-20T10:43:07;21.80;;;18.47;;
2888;SDS011;1453;42.708;23.282;2023-03-20T10:51:09;21.20;;;18.17;;
2888;SDS011;1453;42.708;23.282;2023-03-20T10:53:48;24.70;;;17.40;;
2888;SDS011;1453;42.708;23.282;2023-03-20T10:56:41;22.50;;;18.33;;
2888;SDS011;1453;42.708;23.282;2023-03-20T10:59:20;27.30;;;18.13;;
2888;SDS011;1453;42.708;23.282;2023-03-20T11:01:53;24.03;;;19.13;;
2888;SDS011;1453;42.708;23.282;2023-03-20T11:04:19;21.50;;;19.30;;
2888;SDS011;1453;42.708;23.282;2023-03-20T11:06:59;22.77;;;18.13;;
2888;SDS011;1453;42.708;23.282;2023-03-20T11:09:30;27.20;;;18.50;;
2888;SDS011;1453;42.708;23.282;2023-03-20T11:11:57;25.83;;;18.70;;
2888;SDS011;1453;42.708;23.282;2023-03-20T11:14:26;20.30;;;18.20;;
2888;SDS011;1453;42.708;23.282;2023-03-20T11:17:02;27.90;;;21.80;;
2888;SDS011;1453;42.708;23.282;2023-03-20T11:19:33;21.33;;;17.23;;
2888;SDS011;1453;42.708;23.282;2023-03-20T11:24:56;20.20;;;15.77;;
2888;SDS011;1453;42.708;23.282;2023-03-20T11:27:30;18.20;;;16.30;;
2888;SDS011;1453;42.708;23.282;2023-03-20T11:29:59;21.07;;;16.83;;
2888;SDS011;1453;42.708;23.282;2023-03-20T11:34:57;27.00;;;18.50;;
2888;SDS011;1453;42.708;23.282;2023-03-20T11:37:43;20.50;;;15.33;;
2888;SDS011;1453;42.708;23.282;2023-03-20T11:42:51;25.03;;;14.83;;
2888;SDS011;1453;42.708;23.282;2023-03-20T11:45:20;15.83;;;13.87;;
2888;SDS011;1453;42.708;23.282;2023-03-20T11:47:50;15.83;;;13.97;;
2888;SDS011;1453;42.708;23.282;2023-03-20T11:53:02;12.87;;;11.00;;
2888;SDS011;1453;42.708;23.282;2023-03-20T11:55:43;15.23;;;10.70;;
2888;SDS011;1453;42.708;23.282;2023-03-20T11:58:24;11.27;;;9.33;;
2888;SDS011;1453;42.708;23.282;2023-03-20T12:00:51;17.07;;;10.23;;
2888;SDS011;1453;42.708;23.282;2023-03-20T12:06:20;10.87;;;9.53;;
2888;SDS011;1453;42.708;23.282;2023-03-20T12:08:51;9.27;;;8.37;;
2888;SDS011;1453;42.708;23.282;2023-03-20T12:20:14;8.60;;;7.27;;
2888;SDS011;1453;42.708;23.282;2023-03-20T12:28:25;8.93;;;6.60;;
2888;SDS011;1453;42.708;23.282;2023-03-20T12:34:02;9.03;;;6.47;;
2888;SDS011;1453;42.708;23.282;2023-03-20T12:36:50;10.77;;;6.50;;
2888;SDS011;1453;42.708;23.282;2023-03-20T12:39:25;8.90;;;6.67;;
2888;SDS011;1453;42.708;23.282;2023-03-20T12:57:18;6.60;;;5.73;;
2888;SDS011;1453;42.708;23.282;2023-03-20T13:00:13;6.53;;;5.80;;
2888;SDS011;1453;42.708;23.282;2023-03-20T13:05:33;6.60;;;5.30;;
2888;SDS011;1453;42.708;23.282;2023-03-20T13:14:30;5.73;;;5.20;;
2888;SDS011;1453;42.708;23.282;2023-03-20T13:17:42;6.10;;;5.30;;
2888;SDS011;1453;42.708;23.282;2023-03-20T13:20:20;7.67;;;6.97;;
2888;SDS011;1453;42.708;23.282;2023-03-20T13:28:51;10.40;;;6.70;;
2888;SDS011;1453;42.708;23.282;2023-03-20T13:31:42;8.57;;;6.57;;
2888;SDS011;1453;42.708;23.282;2023-03-20T13:40:04;7.63;;;6.63;;
2888;SDS011;1453;42.708;23.282;2023-03-20T13:43:09;7.17;;;6.47;;
2888;SDS011;1453;42.708;23.282;2023-03-20T13:48:39;9.30;;;6.40;;
2888;SDS011;1453;42.708;23.282;2023-03-20T14:13:01;8.53;;;6.33;;
2888;SDS011;1453;42.708;23.282;2023-03-20T14:15:35;8.27;;;6.70;;
2888;SDS011;1453;42.708;23.282;2023-03-20T14:18:10;7.50;;;6.33;;
2888;SDS011;1453;42.708;23.282;2023-03-20T14:20:41;7.13;;;5.80;;
2888;SDS011;1453;42.708;23.282;2023-03-20T14:23:19;7.57;;;5.80;;
2888;SDS011;1453;42.708;23.282;2023-03-20T14:25:57;6.43;;;5.17;;
2888;SDS011;1453;42.708;23.282;2023-03-20T14:31:12;6.40;;;5.70;;
2888;SDS011;1453;42.708;23.282;2023-03-20T14:33:52;7.20;;;6.10;;
2888;SDS011;1453;42.708;23.282;2023-03-20T14:41:58;7.43;;;5.50;;
2888;SDS011;1453;42.708;23.282;2023-03-20T14:48:52;7.20;;;5.13;;
2888;SDS011;1453;42.708;23.282;2023-03-20T14:54:23;9.80;;;6.30;;
2888;SDS011;1453;42.708;23.282;2023-03-20T14:56:50;15.00;;;6.07;;
2888;SDS011;1453;42.708;23.282;2023-03-20T14:59:21;11.03;;;5.90;;
2888;SDS011;1453;42.708;23.282;2023-03-20T15:07:16;6.80;;;5.40;;
2888;SDS011;1453;42.708;23.282;2023-03-20T15:09:55;7.13;;;5.27;;
2888;SDS011;1453;42.708;23.282;2023-03-20T15:12:29;8.97;;;5.00;;
2888;SDS011;1453;42.708;23.282;2023-03-20T15:15:00;6.50;;;4.83;;
2888;SDS011;1453;42.708;23.282;2023-03-20T15:20:02;8.07;;;4.90;;
2888;SDS011;1453;42.708;23.282;2023-03-20T15:22:53;13.40;;;6.70;;
2888;SDS011;1453;42.708;23.282;2023-03-20T15:25:23;8.30;;;5.90;;
2888;SDS011;1453;42.708;23.282;2023-03-20T15:27:55;11.53;;;6.00;;
2888;SDS011;1453;42.708;23.282;2023-03-20T15:30:21;8.30;;;5.70;;
2888;SDS011;1453;42.708;23.282;2023-03-20T15:32:48;12.00;;;5.70;;
2888;SDS011;1453;42.708;23.282;2023-03-20T15:35:19;15.67;;;7.43;;
2888;SDS011;1453;42.708;23.282;2023-03-20T15:37:47;16.03;;;7.83;;
2888;SDS011;1453;42.708;23.282;2023-03-20T15:40:25;10.27;;;6.03;;
2888;SDS011;1453;42.708;23.282;2023-03-20T15:42:58;6.67;;;5.43;;
2888;SDS011;1453;42.708;23.282;2023-03-20T15:45:32;8.83;;;5.40;;
2888;SDS011;1453;42.708;23.282;2023-03-20T15:48:00;8.40;;;6.10;;
2888;SDS011;1453;42.708;23.282;2023-03-20T15:50:34;8.80;;;6.70;;
2888;SDS011;1453;42.708;23.282;2023-03-20T15:53:03;10.47;;;6.90;;
2888;SDS011;1453;42.708;23.282;2023-03-20T15:55:32;13.23;;;7.60;;
2888;SDS011;1453;42.708;23.282;2023-03-20T15:57:59;9.73;;;6.47;;
2888;SDS011;1453;42.708;23.282;2023-03-20T16:00:33;9.20;;;6.40;;
2888;SDS011;1453;42.708;23.282;2023-03-20T16:03:07;8.10;;;6.47;;
2888;SDS011;1453;42.708;23.282;2023-03-20T16:05:37;10.17;;;6.43;;
2888;SDS011;1453;42.708;23.282;2023-03-20T16:08:28;13.30;;;6.97;;
2888;SDS011;1453;42.708;23.282;2023-03-20T16:10:58;5.87;;;4.53;;
2888;SDS011;1453;42.708;23.282;2023-03-20T16:13:34;7.23;;;4.90;;
2888;SDS011;1453;42.708;23.282;2023-03-20T16:16:22;5.63;;;4.50;;
2888;SDS011;1453;42.708;23.282;2023-03-20T16:18:48;7.40;;;4.97;;
2888;SDS011;1453;42.708;23.282;2023-03-20T16:21:23;19.10;;;8.00;;
2888;SDS011;1453;42.708;23.282;2023-03-20T16:24:06;26.70;;;20.70;;
2888;SDS011;1453;42.708;23.282;2023-03-20T16:26:36;53.57;;;35.80;;
2888;SDS011;1453;42.708;23.282;2023-03-20T16:29:05;29.40;;;21.40;;
2888;SDS011;1453;42.708;23.282;2023-03-20T16:31:32;33.90;;;18.20;;
2888;SDS011;1453;42.708;23.282;2023-03-20T16:34:01;24.40;;;15.20;;
2888;SDS011;1453;42.708;23.282;2023-03-20T16:36:32;32.93;;;18.50;;
2888;SDS011;1453;42.708;23.282;2023-03-20T16:41:41;28.83;;;18.30;;
2888;SDS011;1453;42.708;23.282;2023-03-20T16:44:13;30.37;;;20.53;;
2888;SDS011;1453;42.708;23.282;2023-03-20T16:47:00;24.43;;;15.80;;
2888;SDS011;1453;42.708;23.282;2023-03-20T16:52:50;23.50;;;14.77;;
2888;SDS011;1453;42.708;23.282;2023-03-20T16:55:23;27.83;;;15.23;;
2888;SDS011;1453;42.708;23.282;2023-03-20T16:57:59;19.50;;;12.83;;
2888;SDS011;1453;42.708;23.282;2023-03-20T17:00:31;16.00;;;12.77;;
2888;SDS011;1453;42.708;23.282;2023-03-20T17:06:03;21.43;;;12.97;;
2888;SDS011;1453;42.708;23.282;2023-03-20T17:08:55;17.47;;;10.57;;
2888;SDS011;1453;42.708;23.282;2023-03-20T17:11:37;19.53;;;11.50;;
2888;SDS011;1453;42.708;23.282;2023-03-20T17:14:04;22.97;;;12.63;;
2888;SDS011;1453;42.708;23.282;2023-03-20T17:16:30;18.73;;;13.97;;
2888;SDS011;1453;42.708;23.282;2023-03-20T17:18:58;24.10;;;11.60;;
2888;SDS011;1453;42.708;23.282;2023-03-20T17:21:34;25.93;;;13.77;;
2888;SDS011;1453;42.708;23.282;2023-03-20T17:24:01;31.57;;;18.30;;
2888;SDS011;1453;42.708;23.282;2023-03-20T17:26:27;23.93;;;15.87;;
2888;SDS011;1453;42.708;23.282;2023-03-20T17:28:53;30.00;;;16.43;;
2888;SDS011;1453;42.708;23.282;2023-03-20T17:31:19;32.03;;;14.50;;
2888;SDS011;1453;42.708;23.282;2023-03-20T17:33:45;26.60;;;15.20;;
2888;SDS011;1453;42.708;23.282;2023-03-20T17:36:15;24.47;;;15.83;;
2888;SDS011;1453;42.708;23.282;2023-03-20T17:38:51;29.13;;;17.27;;
2888;SDS011;1453;42.708;23.282;2023-03-20T17:41:18;35.43;;;23.10;;
2888;SDS011;1453;42.708;23.282;2023-03-20T17:43:45;25.63;;;13.80;;
2888;SDS011;1453;42.708;23.282;2023-03-20T17:46:19;28.30;;;17.37;;
2888;SDS011;1453;42.708;23.282;2023-03-20T17:49:06;38.80;;;19.07;;
2888;SDS011;1453;42.708;23.282;2023-03-20T17:51:37;25.60;;;16.07;;
2888;SDS011;1453;42.708;23.282;2023-03-20T17:54:03;19.77;;;12.87;;
2888;SDS011;1453;42.708;23.282;2023-03-20T17:56:29;14.77;;;10.80;;
2888;SDS011;1453;42.708;23.282;2023-03-20T17:58:57;27.03;;;13.90;;
2888;SDS011;1453;42.708;23.282;2023-03-20T18:01:24;24.80;;;15.80;;
2888;SDS011;1453;42.708;23.282;2023-03-20T18:03:51;30.73;;;14.23;;
2888;SDS011;1453;42.708;23.282;2023-03-20T18:06:38;19.50;;;13.27;;
2888;SDS011;1453;42.708;23.282;2023-03-20T18:09:03;19.70;;;12.13;;
2888;SDS011;1453;42.708;23.282;2023-03-20T18:11:29;20.93;;;13.43;;
2888;SDS011;1453;42.708;23.282;2023-03-20T18:13:55;22.00;;;14.20;;
2888;SDS011;1453;42.708;23.282;2023-03-20T18:16:22;23.73;;;16.63;;
2888;SDS011;1453;42.708;23.282;2023-03-20T18:18:50;25.87;;;15.20;;
2888;SDS011;1453;42.708;23.282;2023-03-20T18:21:17;30.70;;;15.23;;
2888;SDS011;1453;42.708;23.282;2023-03-20T18:23:43;26.80;;;15.40;;
2888;SDS011;1453;42.708;23.282;2023-03-20T18:26:20;30.43;;;15.47;;
2888;SDS011;1453;42.708;23.282;2023-03-20T18:28:49;24.10;;;13.50;;
2888;SDS011;1453;42.708;23.282;2023-03-20T18:31:17;26.87;;;12.73;;